Terminal Aerodrome Forecast
Issued by NWS Binghamton, NY

Home | Current Version | Previous Version | Text Only | Print | Product List | Glossary On
Versions: 1 2 3 4 5 6 7 8 9 10 11 12 13 14 15 16 17
000
FTUS41 KBGM 241735
TAFBGM
TAF
KBGM 241735Z 2418/2518 30012G20KT P6SM BKN040
     FM250100 30005KT P6SM SKC
     FM251400 27008KT P6SM SCT060=

USA.gov is the U.S. government's official web portal to all federal, state and local government web resources and services.